Time;durP1;ratioP1;P1;durP2;ratioP2;P2;SDS_P1;SDS_P2;PMS_P1;PMS_P2;Temp;Humidity;BMP_temperature;BMP_pressure;BME280_temperature;BME280_humidity;BME280_pressure;Samples;Min_cycle;Max_cycle;Signal;HPM_P1;HPM_P2
2022/01/08 00:00:33;;;;;;;16.20;8.10;;;;;;;3.79;100.00;92341.66;4981411;28;20192;-73
2022/01/08 00:03:01;;;;;;;4.00;3.77;;;;;;;3.80;100.00;92337.47;4978977;28;20482;-74
2022/01/08 00:05:29;;;;;;;4.37;4.17;;;;;;;3.69;100.00;92347.69;4978877;28;20612;-73
2022/01/08 00:07:56;;;;;;;10.37;3.80;;;;;;;3.70;100.00;92341.84;4978417;28;20218;-73
2022/01/08 00:10:23;;;;;;;4.93;4.43;;;;;;;3.70;100.00;92331.88;4979158;28;20612;-73
2022/01/08 00:12:51;;;;;;;6.07;5.43;;;;;;;3.71;100.00;92338.50;4979868;28;20195;-73
2022/01/08 00:15:18;;;;;;;2.97;2.87;;;;;;;3.73;100.00;92330.09;4977862;28;20618;-73
2022/01/08 00:17:46;;;;;;;2.60;2.13;;;;;;;3.75;100.00;92323.41;4979246;28;20445;-73
2022/01/08 00:20:15;;;;;;;3.23;3.03;;;;;;;3.74;100.00;92328.44;4979859;28;20534;-74
2022/01/08 00:22:43;;;;;;;4.70;4.03;;;;;;;3.72;100.00;92322.66;4979480;28;20449;-74
2022/01/08 00:25:12;;;;;;;5.13;4.67;;;;;;;3.77;100.00;92323.38;4978266;28;20625;-73
2022/01/08 00:27:39;;;;;;;3.77;3.57;;;;;;;3.61;100.00;92284.59;4978381;28;20263;-74
2022/01/08 00:30:07;;;;;;;4.27;3.97;;;;;;;3.78;100.00;92316.69;4979079;28;20607;-74
2022/01/08 00:32:35;;;;;;;8.13;5.17;;;;;;;3.74;100.00;92314.28;4979683;28;20215;-73
2022/01/08 00:35:02;;;;;;;4.23;3.83;;;;;;;3.66;100.00;92300.31;4978364;28;20510;-73
2022/01/08 00:37:31;;;;;;;2.67;2.57;;;;;;;3.82;100.00;92325.78;4978201;28;20468;-74
2022/01/08 00:39:58;;;;;;;3.80;3.43;;;;;;;3.76;100.00;92319.25;4979480;28;20461;-73
2022/01/08 00:42:25;;;;;;;6.97;4.23;;;;;;;3.79;100.00;92318.34;4978311;28;20556;-73
2022/01/08 00:44:52;;;;;;;4.67;4.30;;;;;;;3.73;100.00;92310.13;4978080;28;20219;-74
2022/01/08 00:47:20;;;;;;;4.57;4.23;;;;;;;3.80;100.00;92317.50;4978518;28;20579;-74
2022/01/08 00:49:47;;;;;;;3.70;3.40;;;;;;;3.72;100.00;92305.97;4977785;28;20627;-74
2022/01/08 00:52:16;;;;;;;3.73;3.43;;;;;;;3.64;100.00;92307.84;4978947;28;20443;-73
2022/01/08 00:54:45;;;;;;;4.07;3.70;;;;;;;3.65;100.00;92301.19;4978318;28;20488;-73
2022/01/08 00:57:12;;;;;;;10.47;3.63;;;;;;;3.64;100.00;92300.34;4978423;28;20564;-74
2022/01/08 00:59:39;;;;;;;8.73;5.63;;;;;;;3.67;100.00;92286.94;4977557;28;20639;-73
2022/01/08 01:02:06;;;;;;;4.87;4.33;;;;;;;3.64;100.00;92279.53;4978027;28;20219;-73
2022/01/08 01:04:33;;;;;;;5.00;4.67;;;;;;;3.79;100.00;92296.69;4979555;28;20469;-73
2022/01/08 01:07:00;;;;;;;10.33;4.93;;;;;;;3.72;100.00;92286.00;4978472;28;20614;-74
2022/01/08 01:09:28;;;;;;;3.33;3.03;;;;;;;3.69;100.00;92272.75;4978089;28;20447;-73
2022/01/08 01:11:57;;;;;;;15.90;6.83;;;;;;;3.75;100.00;92272.63;4977426;28;20192;-73
2022/01/08 01:14:25;;;;;;;6.77;4.87;;;;;;;3.67;100.00;92285.28;4977568;28;20606;-74
2022/01/08 01:16:54;;;;;;;3.73;3.53;;;;;;;3.03;100.00;92192.69;4977507;28;20481;-74
2022/01/08 01:19:21;;;;;;;5.73;5.30;;;;;;;3.56;100.00;92262.22;4978371;28;20573;-73
2022/01/08 01:21:49;;;;;;;7.67;3.77;;;;;;;3.75;100.00;92278.44;4977120;28;20238;-73
2022/01/08 01:24:20;;;;;;;4.33;4.07;;;;;;;3.81;100.00;92266.69;4977265;28;20611;-73
2022/01/08 01:27:08;;;;;;;3.97;3.60;;;;;;;3.93;100.00;92258.91;4977843;28;20557;-73
2022/01/08 01:29:47;;;;;;;3.97;3.70;;;;;;;3.90;100.00;92256.44;4977778;28;20497;-73
2022/01/08 01:43:36;;;;;;;4.27;3.97;;;;;;;3.77;100.00;92250.13;4976937;28;20539;-74
2022/01/08 01:48:50;;;;;;;3.50;3.13;;;;;;;3.86;100.00;92252.41;4977277;28;20514;-73
2022/01/08 01:51:20;;;;;;;4.07;3.73;;;;;;;3.83;100.00;92245.78;4977731;28;20579;-73
2022/01/08 01:53:47;;;;;;;6.17;4.63;;;;;;;3.84;100.00;92249.09;4977272;28;20203;-73
2022/01/08 01:56:17;;;;;;;7.17;4.60;;;;;;;3.88;100.00;92248.19;4976661;28;20207;-73
2022/01/08 01:58:44;;;;;;;7.17;5.40;;;;;;;3.74;100.00;92226.03;4976902;28;20627;-73
2022/01/08 02:01:14;;;;;;;7.10;6.13;;;;;;;3.83;100.00;92244.97;4978340;28;20454;-73
2022/01/08 02:03:41;;;;;;;6.00;3.97;;;;;;;3.75;100.00;92228.50;4976708;28;20583;-73
2022/01/08 02:06:09;;;;;;;6.87;3.70;;;;;;;3.70;100.00;92219.47;4977499;28;20634;-73
2022/01/08 02:08:37;;;;;;;13.33;5.70;;;;;;;3.94;100.00;92233.88;4976219;28;20626;-73
2022/01/08 02:11:06;;;;;;;13.00;5.70;;;;;;;3.94;100.00;92223.88;4976398;28;20556;-73
2022/01/08 02:13:34;;;;;;;8.27;6.03;;;;;;;3.84;100.00;92211.63;4976971;28;20505;-73
2022/01/08 02:16:02;;;;;;;6.80;4.83;;;;;;;3.81;100.00;92225.03;4977426;28;20626;-73
2022/01/08 02:18:30;;;;;;;8.17;5.93;;;;;;;3.86;100.00;92233.22;4976272;28;20512;-73
2022/01/08 02:21:01;;;;;;;3.53;3.23;;;;;;;3.90;100.00;92222.28;4976109;28;20594;-73
2022/01/08 02:23:30;;;;;;;2.93;2.83;;;;;;;3.78;100.00;92201.78;4976011;28;20505;-73
2022/01/08 02:26:03;;;;;;;7.97;3.20;;;;;;;3.88;100.00;92226.53;4975763;28;20586;-73
2022/01/08 02:28:31;;;;;;;6.93;3.40;;;;;;;3.80;100.00;92225.88;4976897;28;20593;-73
2022/01/08 02:30:58;;;;;;;4.33;2.83;;;;;;;3.75;100.00;92215.19;4976337;28;20465;-73
2022/01/08 02:33:26;;;;;;;2.53;2.33;;;;;;;3.77;100.00;92210.16;4977139;28;20579;-73
2022/01/08 02:35:53;;;;;;;3.90;3.00;;;;;;;3.72;100.00;92207.75;4976064;28;20465;-73
2022/01/08 02:38:23;;;;;;;7.07;3.30;;;;;;;3.61;100.00;92193.00;4976389;28;20547;-73
2022/01/08 02:40:55;;;;;;;4.73;4.07;;;;;;;3.49;100.00;92192.50;4976318;28;20468;-73
2022/01/08 02:43:23;;;;;;;10.23;3.97;;;;;;;3.54;100.00;92199.03;4976001;28;20538;-73
2022/01/08 02:45:50;;;;;;;4.90;3.80;;;;;;;3.58;100.00;92195.59;4976284;28;20629;-74
2022/01/08 02:48:18;;;;;;;2.37;2.30;;;;;;;3.62;100.00;92186.34;4976579;28;20250;-73
2022/01/08 02:50:45;;;;;;;3.23;3.03;;;;;;;3.67;100.00;92197.88;4975781;28;20508;-73
2022/01/08 02:53:13;;;;;;;5.53;4.00;;;;;;;3.69;100.00;92187.84;4975501;28;20469;-74
2022/01/08 02:55:41;;;;;;;3.70;3.47;;;;;;;3.68;100.00;92192.03;4975739;28;20579;-74
2022/01/08 02:58:09;;;;;;;3.10;2.90;;;;;;;3.69;100.00;92193.66;4976667;28;20638;-73
2022/01/08 03:00:36;;;;;;;5.90;3.93;;;;;;;3.70;100.00;92182.81;4976086;28;20552;-73
2022/01/08 03:03:03;;;;;;;4.03;3.63;;;;;;;3.76;100.00;92191.84;4975605;28;20621;-73
2022/01/08 03:05:31;;;;;;;8.70;3.70;;;;;;;3.71;100.00;92198.63;4975899;28;20471;-73
2022/01/08 03:07:58;;;;;;;4.03;3.77;;;;;;;3.75;100.00;92195.19;4976249;28;20203;-73
2022/01/08 03:10:25;;;;;;;3.47;3.27;;;;;;;3.73;100.00;92185.22;4976320;28;20512;-73
2022/01/08 03:12:54;;;;;;;10.87;5.37;;;;;;;3.75;100.00;92176.03;4976109;28;20486;-73
2022/01/08 03:15:23;;;;;;;9.83;4.67;;;;;;;3.45;100.00;92116.00;4979455;28;20203;-73
2022/01/08 03:17:51;;;;;;;4.50;4.10;;;;;;;3.57;100.00;92148.19;4979914;28;20498;-74
2022/01/08 03:20:18;;;;;;;11.00;4.90;;;;;;;3.83;100.00;92180.03;4980607;28;20211;-74
2022/01/08 03:22:47;;;;;;;6.30;4.07;;;;;;;3.73;100.00;92185.22;4980621;28;20265;-74
2022/01/08 03:25:16;;;;;;;8.07;6.10;;;;;;;3.63;100.00;92176.31;4980173;28;20647;-74
2022/01/08 03:27:44;;;;;;;4.40;4.10;;;;;;;3.72;100.00;92180.25;4979683;28;20483;-74
2022/01/08 03:30:14;;;;;;;7.60;3.80;;;;;;;3.78;100.00;92182.63;4979270;28;20560;-74
2022/01/08 03:32:41;;;;;;;3.67;3.47;;;;;;;3.71;100.00;92183.66;4978890;28;20310;-74
2022/01/08 03:35:09;;;;;;;9.10;4.83;;;;;;;3.78;100.00;92191.78;4979442;28;20587;-74
2022/01/08 03:37:37;;;;;;;4.87;4.57;;;;;;;3.82;100.00;92170.88;4979161;28;20195;-73
2022/01/08 03:40:06;;;;;;;6.60;3.83;;;;;;;3.92;100.00;92175.63;4980692;28;20567;-73
2022/01/08 03:42:34;;;;;;;4.57;4.17;;;;;;;3.90;100.00;92174.81;4979888;28;20192;-73
2022/01/08 03:45:02;;;;;;;6.43;5.03;;;;;;;3.92;100.00;92174.78;4981033;28;20534;-74
2022/01/08 03:47:52;;;;;;;14.30;5.40;;;;;;;4.03;100.00;92181.16;4979891;28;20568;-74
2022/01/08 03:50:19;;;;;;;7.00;3.93;;;;;;;3.97;100.00;92170.50;4978876;28;20483;-74
2022/01/08 03:52:46;;;;;;;3.90;3.53;;;;;;;3.97;100.00;92178.81;4978780;28;20218;-74
2022/01/08 03:55:14;;;;;;;10.23;4.97;;;;;;;3.98;100.00;92167.97;4978866;28;20452;-73
2022/01/08 03:57:41;;;;;;;6.90;4.47;;;;;;;3.79;100.00;92139.28;4978862;28;20708;-73
2022/01/08 04:00:10;;;;;;;5.70;4.73;;;;;;;3.94;100.00;92168.09;4979167;28;20586;-74
2022/01/08 04:02:39;;;;;;;11.53;5.27;;;;;;;3.93;100.00;92168.94;4978670;28;20555;-73
2022/01/08 04:05:07;;;;;;;10.10;4.47;;;;;;;3.85;100.00;92168.31;4979094;28;20691;-73
2022/01/08 04:07:34;;;;;;;18.17;7.00;;;;;;;3.43;100.00;92111.06;4979339;28;20211;-73
2022/01/08 04:10:02;;;;;;;10.23;4.30;;;;;;;3.76;100.00;92164.38;4979246;28;20546;-73
2022/01/08 04:12:39;;;;;;;13.27;5.77;;;;;;;3.82;100.00;92159.22;4979631;28;20262;-74
2022/01/08 04:15:19;;;;;;;9.47;5.57;;;;;;;3.83;100.00;92165.03;4978695;28;20195;-74
2022/01/08 04:17:49;;;;;;;8.80;5.97;;;;;;;3.92;100.00;92163.13;4978743;28;20297;-74
2022/01/08 04:20:16;;;;;;;7.83;5.67;;;;;;;3.87;100.00;92157.44;4978205;28;20587;-73
2022/01/08 04:22:46;;;;;;;8.57;6.13;;;;;;;3.99;100.00;92167.13;4978269;28;20485;-73
2022/01/08 04:25:14;;;;;;;13.40;6.10;;;;;;;4.03;100.00;92173.66;4978431;28;20488;-73
2022/01/08 04:27:41;;;;;;;5.50;4.57;;;;;;;3.95;100.00;92150.53;4978647;28;20285;-75
2022/01/08 04:30:09;;;;;;;6.23;5.70;;;;;;;3.93;100.00;92147.28;4978223;28;20615;-74
2022/01/08 04:32:37;;;;;;;5.50;5.03;;;;;;;3.77;100.00;92120.22;4978915;28;20591;-73
2022/01/08 04:35:06;;;;;;;5.07;4.63;;;;;;;3.74;100.00;92116.94;4978507;28;20548;-74
2022/01/08 04:37:33;;;;;;;13.23;6.23;;;;;;;3.97;100.00;92156.31;4977889;28;20587;-73
2022/01/08 04:40:01;;;;;;;9.40;5.63;;;;;;;3.75;100.00;92121.09;4979329;28;20560;-73
2022/01/08 04:42:28;;;;;;;13.03;7.13;;;;;;;3.33;100.00;92058.03;4978031;28;20208;-73
2022/01/08 04:44:56;;;;;;;7.97;6.30;;;;;;;3.88;100.00;92143.25;4966401;28;20598;-73
2022/01/08 04:47:23;;;;;;;6.70;5.13;;;;;;;3.90;100.00;92156.50;4972230;28;20622;-73
2022/01/08 04:49:50;;;;;;;8.53;4.67;;;;;;;3.87;100.00;92157.44;4977434;28;20580;-74
2022/01/08 04:52:21;;;;;;;6.33;4.57;;;;;;;3.47;100.00;92107.63;4973866;28;20591;-74
2022/01/08 04:54:48;;;;;;;8.07;6.53;;;;;;;3.85;100.00;92169.13;4978750;28;20572;-73
2022/01/08 04:57:15;;;;;;;6.97;5.13;;;;;;;3.58;100.00;92118.19;4975714;28;20586;-73
2022/01/08 04:59:43;;;;;;;5.87;5.10;;;;;;;3.86;100.00;92167.44;4979356;28;20584;-74
2022/01/08 05:02:10;;;;;;;6.17;4.73;;;;;;;3.53;100.00;92114.16;4977958;28;20672;-74
2022/01/08 05:04:38;;;;;;;3.77;3.57;;;;;;;3.97;100.00;92173.00;4977610;28;20556;-73
2022/01/08 05:07:05;;;;;;;7.67;6.43;;;;;;;3.83;100.00;92148.34;4977757;28;20561;-74
2022/01/08 05:09:34;;;;;;;6.70;5.97;;;;;;;3.91;100.00;92153.97;4977714;28;20204;-73
2022/01/08 05:12:01;;;;;;;8.07;6.47;;;;;;;3.90;100.00;92152.34;4978766;28;20607;-73
2022/01/08 05:14:29;;;;;;;21.53;7.43;;;;;;;3.88;100.00;92153.25;4979394;28;20531;-74
2022/01/08 05:16:59;;;;;;;10.30;6.37;;;;;;;3.94;100.00;92160.59;4977513;28;20607;-74
2022/01/08 05:19:38;;;;;;;9.77;6.43;;;;;;;3.95;100.00;92154.72;4977798;28;20556;-74
2022/01/08 05:22:07;;;;;;;104.87;25.63;;;;;;;3.56;100.00;92091.59;4977653;28;20552;-73
2022/01/08 05:24:36;;;;;;;34.17;16.33;;;;;;;3.70;100.00;92122.06;4978474;28;20294;-74
2022/01/08 05:27:06;;;;;;;29.43;15.03;;;;;;;3.74;100.00;92139.41;4978626;28;20250;-73
2022/01/08 05:29:35;;;;;;;20.10;11.23;;;;;;;3.66;100.00;92120.50;4972436;28;20556;-74
2022/01/08 05:32:02;;;;;;;53.70;25.27;;;;;;;3.71;100.00;92134.50;4977041;28;20544;-73
2022/01/08 05:34:30;;;;;;;109.97;42.60;;;;;;;3.51;100.00;92098.38;4978510;28;20196;-74
2022/01/08 05:36:57;;;;;;;119.10;41.63;;;;;;;3.86;100.00;92158.28;4975877;28;20504;-74
2022/01/08 05:39:24;;;;;;;39.67;21.93;;;;;;;3.87;100.00;92159.94;4973309;28;20549;-75
2022/01/08 05:41:53;;;;;;;19.33;13.23;;;;;;;3.81;100.00;92146.75;4971851;28;20468;-73
2022/01/08 05:44:20;;;;;;;12.80;9.80;;;;;;;3.88;100.00;92154.06;4969767;28;20523;-73
2022/01/08 05:46:47;;;;;;;13.63;6.97;;;;;;;3.90;100.00;92149.84;4970547;28;20226;-73
2022/01/08 05:49:17;;;;;;;37.20;16.93;;;;;;;3.92;100.00;92150.63;4971284;28;20204;-73
2022/01/08 05:51:44;;;;;;;39.40;20.73;;;;;;;3.81;100.00;92155.06;4970559;28;20550;-73
2022/01/08 05:54:12;;;;;;;27.83;17.67;;;;;;;3.81;100.00;92151.75;4972003;28;20455;-72
2022/01/08 05:56:39;;;;;;;41.43;18.63;;;;;;;3.70;100.00;92147.84;4972932;28;20554;-73
2022/01/08 05:59:08;;;;;;;20.70;14.37;;;;;;;3.68;100.00;92143.75;4974389;28;20281;-73
2022/01/08 06:01:36;;;;;;;34.87;16.90;;;;;;;3.59;100.00;92132.31;4978077;28;20807;-73
2022/01/08 06:04:04;;;;;;;10.53;6.07;;;;;;;3.45;100.00;92116.00;4978382;28;20203;-73
2022/01/08 06:06:31;;;;;;;8.93;7.43;;;;;;;3.56;100.00;92119.88;4974365;28;20576;-73
2022/01/08 06:09:00;;;;;;;10.33;7.70;;;;;;;3.78;100.00;92150.13;4970811;28;20196;-75
2022/01/08 06:11:31;;;;;;;8.67;7.87;;;;;;;3.68;100.00;92129.56;4971164;28;20534;-76
2022/01/08 06:13:59;;;;;;;5.63;5.13;;;;;;;3.92;100.00;92154.81;4974182;28;20477;-76
2022/01/08 06:16:32;;;;;;;5.57;5.17;;;;;;;3.37;100.00;92060.47;4971461;28;20596;-76
2022/01/08 06:19:01;;;;;;;27.00;10.67;;;;;;;3.94;100.00;92153.91;4971914;28;20580;-75
2022/01/08 06:21:28;;;;;;;7.33;6.27;;;;;;;3.57;100.00;92096.56;4973448;28;20558;-75
2022/01/08 06:23:55;;;;;;;6.63;6.03;;;;;;;4.00;100.00;92155.44;4972108;28;20663;-75
2022/01/08 06:26:23;;;;;;;7.87;7.13;;;;;;;3.85;100.00;92139.16;4974788;28;20646;-75
2022/01/08 06:28:51;;;;;;;10.30;9.47;;;;;;;3.85;100.00;92136.66;4974005;28;20594;-75
2022/01/08 06:31:19;;;;;;;22.90;10.57;;;;;;;3.58;100.00;92104.88;4972147;28;20580;-75
2022/01/08 06:33:49;;;;;;;19.77;11.30;;;;;;;3.73;100.00;92135.28;4974352;28;20259;-75
2022/01/08 06:36:18;;;;;;;20.37;12.00;;;;;;;3.92;100.00;92153.13;4969942;28;20192;-75
2022/01/08 06:38:46;;;;;;;11.67;10.23;;;;;;;3.96;100.00;92154.69;4970800;28;20305;-75
2022/01/08 06:41:13;;;;;;;20.40;9.47;;;;;;;3.96;100.00;92153.84;4969315;28;20571;-74
2022/01/08 06:43:41;;;;;;;11.73;9.50;;;;;;;3.86;100.00;92145.78;4968745;28;20200;-75
2022/01/08 06:46:08;;;;;;;11.40;9.80;;;;;;;3.81;100.00;92146.75;4975293;28;20542;-75
2022/01/08 06:48:35;;;;;;;27.97;12.97;;;;;;;3.80;100.00;92155.09;4971255;28;20565;-76
2022/01/08 06:51:04;;;;;;;23.10;13.03;;;;;;;3.77;100.00;92157.69;4971661;28;20599;-74
2022/01/08 06:53:31;;;;;;;22.10;12.60;;;;;;;3.81;100.00;92135.09;4973222;28;20579;-74
2022/01/08 06:55:59;;;;;;;26.00;10.50;;;;;;;3.99;100.00;92154.63;4972643;28;20657;-74
2022/01/08 06:58:27;;;;;;;19.30;12.03;;;;;;;4.07;100.00;92162.72;4970949;28;20535;-75
2022/01/08 07:00:54;;;;;;;27.33;14.37;;;;;;;4.10;100.00;92146.84;4971271;28;20587;-75
2022/01/08 07:03:22;;;;;;;18.53;11.73;;;;;;;4.14;100.00;92149.22;4974152;28;20573;-76
2022/01/08 07:05:49;;;;;;;19.63;12.10;;;;;;;4.23;100.00;92159.81;4972787;28;20610;-75
2022/01/08 07:08:18;;;;;;;17.77;11.87;;;;;;;4.13;100.00;92136.75;4976524;28;20464;-77
2022/01/08 07:10:46;;;;;;;30.53;13.57;;;;;;;4.22;100.00;92153.19;4972626;28;20583;-77
2022/01/08 07:13:13;;;;;;;27.50;15.93;;;;;;;4.13;100.00;92150.06;4971574;28;20595;-76
2022/01/08 07:15:40;;;;;;;29.33;13.50;;;;;;;3.99;100.00;92129.63;4971523;28;20619;-72
2022/01/08 07:18:08;;;;;;;27.87;14.90;;;;;;;4.11;100.00;92146.78;4969768;28;20676;-76
2022/01/08 07:20:35;;;;;;;12.83;11.63;;;;;;;3.57;100.00;92054.09;4967947;28;20583;-76
2022/01/08 07:23:02;;;;;;;20.93;13.13;;;;;;;4.21;100.00;92154.06;4970492;28;20226;-76
2022/01/08 07:25:31;;;;;;;14.30;9.50;;;;;;;4.25;100.00;92143.09;4972372;28;20531;-75
2022/01/08 07:27:59;;;;;;;17.90;12.07;;;;;;;3.91;100.00;92099.00;4972224;28;20219;-76
2022/01/08 07:30:26;;;;;;;14.07;8.50;;;;;;;4.27;100.00;92147.22;4971663;28;20486;-74
2022/01/08 07:32:54;;;;;;;42.97;21.90;;;;;;;4.28;100.00;92146.34;4974006;28;20606;-75
2022/01/08 07:35:23;;;;;;;173.53;45.20;;;;;;;4.27;100.00;92147.22;4973880;28;20600;-76
2022/01/08 07:37:52;;;;;;;74.00;30.17;;;;;;;4.23;100.00;92135.63;4970838;28;20587;-75
2022/01/08 07:40:21;;;;;;;70.43;31.17;;;;;;;4.32;100.00;92144.59;4974053;28;20608;-75
2022/01/08 07:42:50;;;;;;;49.70;25.50;;;;;;;4.35;100.00;92145.31;4975627;28;20575;-74
2022/01/08 07:45:18;;;;;;;63.00;30.17;;;;;;;4.29;100.00;92139.66;4969444;28;20554;-75
2022/01/08 07:47:46;;;;;;;36.53;18.17;;;;;;;4.33;100.00;92138.72;4972500;28;20540;-76
2022/01/08 07:50:14;;;;;;;22.70;14.90;;;;;;;4.24;100.00;92142.28;4972584;28;20655;-75
2022/01/08 07:52:42;;;;;;;22.93;12.80;;;;;;;4.29;100.00;92142.97;4971082;28;20592;-76
2022/01/08 07:55:11;;;;;;;16.70;11.57;;;;;;;4.32;100.00;92139.59;4971265;28;20479;-77
2022/01/08 07:57:39;;;;;;;23.50;13.60;;;;;;;4.34;100.00;92137.88;4972746;28;20625;-76
2022/01/08 08:00:09;;;;;;;16.20;11.60;;;;;;;4.37;100.00;92132.78;4971323;28;20564;-76
2022/01/08 08:02:36;;;;;;;25.20;12.07;;;;;;;4.42;100.00;92130.97;4972682;28;20583;-76
2022/01/08 08:05:04;;;;;;;19.00;12.20;;;;;;;4.43;100.00;92130.13;4968892;28;20560;-76
2022/01/08 08:07:37;;;;;;;16.37;13.03;;;;;;;4.55;100.00;92133.09;4970962;28;20503;-76
2022/01/08 08:10:06;;;;;;;19.43;11.93;;;;;;;4.58;100.00;92123.00;4966946;28;20498;-76
2022/01/08 08:12:33;;;;;;;19.60;12.60;;;;;;;4.67;100.00;92134.44;4965473;28;20641;-75
2022/01/08 08:15:01;;;;;;;22.83;12.77;;;;;;;4.65;100.00;92120.31;4961970;28;20507;-75
2022/01/08 08:17:30;;;;;;;36.87;19.43;;;;;;;4.76;100.00;92124.16;4963701;28;20598;-74
2022/01/08 08:19:57;;;;;;;30.63;15.03;;;;;;;4.80;100.00;92123.19;4965191;28;20219;-75
2022/01/08 08:22:24;;;;;;;13.37;10.17;;;;;;;4.81;100.00;92119.84;4967484;28;20204;-75
2022/01/08 08:24:51;;;;;;;17.43;9.43;;;;;;;4.96;100.00;92116.88;4962878;28;20199;-74
2022/01/08 08:27:19;;;;;;;22.87;13.10;;;;;;;5.03;100.00;92129.19;4965292;28;20592;-75
2022/01/08 08:29:46;;;;;;;15.30;12.27;;;;;;;5.04;100.00;92130.84;4968398;28;20196;-77
2022/01/08 08:32:14;;;;;;;16.43;11.00;;;;;;;5.10;100.00;92129.00;4973381;28;20487;-76
2022/01/08 08:34:42;;;;;;;19.63;9.73;;;;;;;5.15;100.00;92129.66;4973138;28;20588;-78
2022/01/08 08:37:10;;;;;;;17.87;8.70;;;;;;;5.11;100.00;92114.78;4971552;28;20583;-75
2022/01/08 08:39:37;;;;;;;10.73;9.57;;;;;;;5.17;100.00;92112.09;4976982;28;20591;-75
2022/01/08 08:42:05;;;;;;;7.80;7.00;;;;;;;5.24;100.00;92116.06;4974327;28;20583;-74
2022/01/08 08:44:33;;;;;;;9.37;7.77;;;;;;;5.34;100.00;92120.72;4973547;28;20482;-74
2022/01/08 08:47:00;;;;;;;9.37;8.37;;;;;;;5.26;100.00;92094.28;4975807;28;20223;-74
2022/01/08 08:49:28;;;;;;;10.00;7.30;;;;;;;5.38;100.00;92109.75;4976098;28;20235;-75
2022/01/08 08:51:57;;;;;;;9.77;8.43;;;;;;;5.43;100.00;92117.94;4974366;28;20602;-75
2022/01/08 08:54:24;;;;;;;17.03;8.10;;;;;;;5.45;100.00;92115.38;4977164;28;20623;-75
2022/01/08 08:56:51;;;;;;;11.10;8.37;;;;;;;5.51;99.42;92107.69;4974312;28;20596;-75
2022/01/08 08:59:23;;;;;;;14.67;9.27;;;;;;;5.51;100.00;92092.66;4976031;28;20615;-78
2022/01/08 09:01:52;;;;;;;9.73;8.53;;;;;;;5.20;99.82;92041.88;4972413;28;20560;-75
2022/01/08 09:04:20;;;;;;;15.07;9.73;;;;;;;5.55;100.00;92084.16;4972222;28;20207;-76
2022/01/08 09:06:48;;;;;;;13.80;10.50;;;;;;;5.56;100.00;92085.78;4973222;28;20710;-75
2022/01/08 09:09:18;;;;;;;10.47;7.43;;;;;;;5.70;100.00;92081.13;4973573;28;20591;-76
2022/01/08 09:11:46;;;;;;;12.50;8.43;;;;;;;5.65;99.88;92074.63;4976024;28;20564;-75
2022/01/08 09:14:13;;;;;;;13.07;9.37;;;;;;;5.77;99.24;92082.59;4974710;28;20568;-76
2022/01/08 09:16:47;;;;;;;11.03;5.23;;;;;;;5.84;99.04;92085.72;4974451;28;20537;-76
2022/01/08 09:19:14;;;;;;;13.27;9.20;;;;;;;5.82;98.16;92080.72;4974028;28;20572;-74
2022/01/08 09:21:41;;;;;;;15.60;10.43;;;;;;;5.69;98.81;92058.66;4975140;28;20282;-75
2022/01/08 09:24:09;;;;;;;17.60;8.37;;;;;;;5.77;98.70;92066.72;4975620;28;20200;-76
2022/01/08 09:26:38;;;;;;;8.23;6.50;;;;;;;5.92;99.11;92065.41;4974529;28;20648;-73
2022/01/08 09:29:06;;;;;;;10.83;7.43;;;;;;;5.98;97.83;92050.97;4973760;28;20542;-75
2022/01/08 09:31:34;;;;;;;6.23;4.93;;;;;;;5.97;95.85;92046.81;4972434;28;20478;-76
2022/01/08 09:34:01;;;;;;;8.50;6.83;;;;;;;5.82;95.99;92025.59;4971733;28;20590;-74
2022/01/08 09:36:29;;;;;;;9.93;9.07;;;;;;;6.14;95.96;92042.03;4970920;28;20199;-75
2022/01/08 09:38:56;;;;;;;28.73;13.17;;;;;;;6.25;96.80;92036.69;4972730;28;20608;-75
2022/01/08 09:41:24;;;;;;;12.80;8.03;;;;;;;6.23;95.82;92029.19;4974061;28;20508;-74
2022/01/08 09:43:53;;;;;;;15.07;10.07;;;;;;;6.18;95.93;92027.72;4974563;28;20589;-75
2022/01/08 09:46:21;;;;;;;16.20;8.43;;;;;;;6.12;96.06;92012.91;4976540;28;20626;-75
2022/01/08 09:48:49;;;;;;;6.13;5.63;;;;;;;6.13;95.53;92027.91;4973674;28;20745;-74
2022/01/08 09:51:17;;;;;;;11.03;7.03;;;;;;;6.36;95.57;92041.31;4974707;28;20497;-75
2022/01/08 09:53:44;;;;;;;32.63;14.93;;;;;;;6.31;96.03;92015.56;4971282;28;20496;-74
2022/01/08 09:56:12;;;;;;;6.90;5.80;;;;;;;6.45;95.62;92035.94;4972340;28;20569;-74
2022/01/08 09:58:40;;;;;;;16.43;9.43;;;;;;;6.54;95.91;92021.34;4973999;28;20482;-74
2022/01/08 10:01:23;;;;;;;18.60;10.53;;;;;;;6.63;94.55;92027.75;4975294;28;20254;-74
2022/01/08 10:03:50;;;;;;;49.20;15.83;;;;;;;6.51;94.38;92013.13;4974069;28;20582;-74
2022/01/08 10:06:22;;;;;;;28.87;11.97;;;;;;;6.60;94.38;92013.59;4973173;28;20552;-74
2022/01/08 10:08:51;;;;;;;5.20;4.70;;;;;;;6.60;94.91;92013.59;4974499;28;20487;-73
2022/01/08 10:11:20;;;;;;;7.90;3.33;;;;;;;6.58;93.50;92005.31;4966613;28;20487;-76
2022/01/08 10:14:00;;;;;;;16.47;9.60;;;;;;;6.65;94.64;92001.69;4962260;28;20590;-75
2022/01/08 10:19:19;;;;;;;34.50;17.40;;;;;;;6.43;94.15;91985.81;4959182;28;20215;-75
2022/01/08 10:21:47;;;;;;;5.27;3.77;;;;;;;6.14;94.24;91966.81;4962015;28;20568;-75
2022/01/08 10:24:20;;;;;;;5.33;4.93;;;;;;;6.32;94.79;91987.91;4958587;28;20231;-75
2022/01/08 10:26:49;;;;;;;8.13;7.17;;;;;;;6.30;95.02;91988.84;4961315;28;20577;-75
2022/01/08 10:29:19;;;;;;;8.77;6.47;;;;;;;6.34;95.82;91973.63;4956721;28;20547;-74
2022/01/08 10:31:50;;;;;;;6.00;5.63;;;;;;;6.24;95.53;91959.78;4959907;28;20224;-74
2022/01/08 10:34:19;;;;;;;4.97;4.53;;;;;;;6.34;95.32;91967.78;4960369;28;20531;-76
2022/01/08 10:36:49;;;;;;;6.90;5.70;;;;;;;6.38;95.61;91957.56;4957435;28;20588;-76
2022/01/08 10:39:20;;;;;;;8.03;4.20;;;;;;;6.50;94.44;91979.69;4959176;28;20506;-76
2022/01/08 10:41:50;;;;;;;8.90;5.90;;;;;;;6.51;94.00;91973.00;4956804;28;20527;-75
2022/01/08 10:44:18;;;;;;;4.13;3.93;;;;;;;6.44;94.49;91964.88;4962715;28;20489;-76
2022/01/08 10:46:56;;;;;;;6.23;5.40;;;;;;;6.49;93.77;91974.72;4957031;28;20541;-75
2022/01/08 10:49:32;;;;;;;5.70;4.37;;;;;;;6.52;94.15;91970.44;4956445;28;20549;-75
2022/01/08 10:52:01;;;;;;;5.00;3.10;;;;;;;6.34;94.49;91961.09;4957489;28;20322;-76
2022/01/08 10:54:29;;;;;;;3.30;3.00;;;;;;;6.35;94.54;91949.34;4957744;28;20490;-75
2022/01/08 10:56:59;;;;;;;3.73;3.43;;;;;;;6.31;94.50;91951.16;4962960;28;20456;-75
2022/01/08 10:59:28;;;;;;;4.87;3.13;;;;;;;6.31;95.22;91955.38;4960008;28;20525;-75
2022/01/08 11:02:02;;;;;;;5.17;4.83;;;;;;;6.33;95.29;91944.41;4960138;28;20199;-75
2022/01/08 11:04:42;;;;;;;25.57;13.30;;;;;;;6.40;94.85;91939.97;4958617;28;20471;-75
2022/01/08 11:07:11;;;;;;;8.33;7.73;;;;;;;6.51;93.37;91946.22;4959852;28;20227;-76
2022/01/08 11:09:41;;;;;;;4.63;4.33;;;;;;;6.53;93.23;91944.47;4961602;28;20485;-74
2022/01/08 11:12:13;;;;;;;5.67;4.70;;;;;;;6.56;93.37;91943.53;4962186;28;20254;-76
2022/01/08 11:14:59;;;;;;;5.10;4.60;;;;;;;6.53;93.60;91931.91;4962129;28;20611;-76
2022/01/08 11:17:31;;;;;;;7.60;5.40;;;;;;;6.59;93.98;91926.63;4958578;28;20227;-76
2022/01/08 11:20:00;;;;;;;13.43;5.93;;;;;;;6.62;93.60;91923.22;4959749;28;20648;-76
2022/01/08 11:22:30;;;;;;;6.43;5.13;;;;;;;6.60;93.34;91908.19;4959649;28;20473;-77
2022/01/08 11:25:00;;;;;;;5.63;5.17;;;;;;;6.69;93.39;91904.53;4961647;28;20341;-75
2022/01/08 11:27:33;;;;;;;7.10;6.40;;;;;;;6.86;92.09;91914.72;4963845;28;20215;-75
2022/01/08 11:30:13;;;;;;;5.57;5.10;;;;;;;6.89;92.09;91908.75;4963703;28;20559;-76
2022/01/08 11:32:43;;;;;;;5.47;5.00;;;;;;;7.09;91.79;91921.31;4959675;28;20680;-76
2022/01/08 11:35:13;;;;;;;9.83;6.00;;;;;;;7.22;91.34;91924.13;4962224;28;20577;-76
2022/01/08 11:37:46;;;;;;;6.77;5.07;;;;;;;7.22;89.73;91916.59;4965464;28;20204;-75
2022/01/08 11:40:16;;;;;;;10.10;5.80;;;;;;;7.17;89.59;91910.94;4962293;28;20551;-75
2022/01/08 11:42:44;;;;;;;11.70;6.57;;;;;;;7.16;90.08;91911.81;4962532;28;20200;-76
2022/01/08 11:45:14;;;;;;;11.10;7.50;;;;;;;7.08;90.84;91902.94;4964362;28;20203;-76
2022/01/08 11:47:47;;;;;;;5.83;5.43;;;;;;;6.85;90.71;91890.50;4965403;28;20543;-76
2022/01/08 11:50:19;;;;;;;8.63;7.00;;;;;;;6.80;91.43;91894.88;4963763;28;20541;-76
2022/01/08 11:52:46;;;;;;;14.87;7.57;;;;;;;6.77;92.43;91884.13;4962856;28;20582;-76